createdAt,value
2018-05-04T00:01:09.156Z,48.40
2018-05-04T00:03:35.423Z,48.40
2018-05-04T00:06:01.660Z,48.40
2018-05-04T00:08:27.869Z,48.50
2018-05-04T00:10:54.109Z,48.80
2018-05-04T00:13:20.328Z,48.70
2018-05-04T00:15:46.591Z,48.60
2018-05-04T00:18:12.819Z,48.60
2018-05-04T00:20:39.064Z,49.00
2018-05-04T00:23:05.296Z,48.90
2018-05-04T00:25:31.514Z,48.90
2018-05-04T00:27:57.787Z,49.10
2018-05-04T00:30:24.009Z,49.00
2018-05-04T00:32:50.248Z,48.90
2018-05-04T00:35:16.463Z,49.00
2018-05-04T00:37:42.691Z,48.90
2018-05-04T00:40:08.960Z,48.80
2018-05-04T00:42:35.219Z,49.00
2018-05-04T00:45:01.458Z,49.20
2018-05-04T00:47:27.700Z,49.00
2018-05-04T00:49:53.914Z,49.00
2018-05-04T00:52:20.173Z,49.00
2018-05-04T00:54:46.394Z,49.10
2018-05-04T00:57:12.649Z,49.10
2018-05-04T00:59:40.231Z,48.90
2018-05-04T01:02:06.461Z,48.80
2018-05-04T01:04:32.745Z,49.30
2018-05-04T01:06:58.981Z,49.10
2018-05-04T01:09:25.213Z,49.20
2018-05-04T01:11:51.500Z,49.00
2018-05-04T01:14:17.744Z,49.10
2018-05-04T01:16:44.001Z,48.90
2018-05-04T01:19:10.237Z,49.00
2018-05-04T01:21:36.489Z,49.00
2018-05-04T01:24:02.717Z,48.90
2018-05-04T01:26:28.945Z,49.10
2018-05-04T01:28:55.218Z,49.10
2018-05-04T01:31:21.454Z,49.10
2018-05-04T01:33:47.673Z,49.20
2018-05-04T01:36:13.901Z,49.30
2018-05-04T01:38:40.121Z,49.00
2018-05-04T01:41:06.378Z,49.40
2018-05-04T01:43:32.610Z,49.40
2018-05-04T01:45:58.833Z,49.20
2018-05-04T01:48:25.494Z,49.20
2018-05-04T01:50:51.709Z,49.30
2018-05-04T01:53:17.988Z,49.70
2018-05-04T01:55:44.974Z,49.40
2018-05-04T01:58:11.224Z,49.50
2018-05-04T02:00:37.472Z,49.10
2018-05-04T02:03:03.693Z,49.40
2018-05-04T02:05:29.953Z,49.60
2018-05-04T02:07:56.197Z,49.50
2018-05-04T02:10:22.464Z,49.80
2018-05-04T02:12:48.729Z,49.90
2018-05-04T02:15:14.987Z,49.70
2018-05-04T02:17:41.259Z,49.90
2018-05-04T02:20:07.490Z,49.90
2018-05-04T02:22:33.718Z,49.80
2018-05-04T02:25:00.706Z,49.50
2018-05-04T02:27:26.921Z,49.50
2018-05-04T02:29:53.191Z,49.30
2018-05-04T02:32:19.535Z,49.60
2018-05-04T02:34:46.464Z,49.60
2018-05-04T02:37:12.778Z,49.50
2018-05-04T02:39:39.017Z,49.10
2018-05-04T02:42:05.293Z,49.10
2018-05-04T02:44:31.521Z,49.40
2018-05-04T02:46:58.469Z,49.20
2018-05-04T02:49:24.716Z,49.50
2018-05-04T02:51:50.968Z,50.00
2018-05-04T02:54:17.238Z,50.10
2018-05-04T02:56:43.508Z,50.00
2018-05-04T02:59:09.721Z,49.70
2018-05-04T03:01:35.949Z,49.60
2018-05-04T03:04:02.186Z,49.90
2018-05-04T03:06:28.471Z,49.50
2018-05-04T03:08:54.697Z,50.30
2018-05-04T03:11:20.930Z,50.30
2018-05-04T03:13:47.356Z,50.50
2018-05-04T03:16:13.581Z,50.20
2018-05-04T03:18:39.856Z,50.40
2018-05-04T03:21:06.091Z,50.30
2018-05-04T03:23:32.321Z,50.30
2018-05-04T03:25:58.560Z,50.20
2018-05-04T03:28:24.800Z,50.60
2018-05-04T03:30:51.821Z,50.10
2018-05-04T03:33:18.039Z,50.00
2018-05-04T03:35:44.284Z,49.80
2018-05-04T03:38:10.541Z,50.10
2018-05-04T03:40:36.780Z,50.10
2018-05-04T03:43:03.055Z,49.90
2018-05-04T03:45:29.292Z,49.70
2018-05-04T03:47:55.508Z,49.70
2018-05-04T03:50:21.764Z,49.90
2018-05-04T03:52:47.985Z,49.90
2018-05-04T03:55:14.253Z,50.30
2018-05-04T03:57:40.496Z,50.40
2018-05-04T04:00:07.469Z,49.90
2018-05-04T04:02:33.765Z,50.40
2018-05-04T04:05:00.713Z,50.20
2018-05-04T04:07:26.970Z,50.20
2018-05-04T04:09:53.188Z,50.00
2018-05-04T04:12:19.612Z,50.30
2018-05-04T04:14:45.830Z,50.20
2018-05-04T04:17:12.056Z,50.40
2018-05-04T04:19:39.100Z,50.30
2018-05-04T04:22:05.329Z,50.30
2018-05-04T04:24:31.553Z,49.80
2018-05-04T04:26:57.792Z,49.20
2018-05-04T04:29:24.023Z,48.60
2018-05-04T04:31:51.045Z,48.40
2018-05-04T04:34:17.392Z,48.30
2018-05-04T04:36:44.125Z,47.60
2018-05-04T04:39:10.362Z,46.50
2018-05-04T04:41:36.593Z,45.50
2018-05-04T04:44:02.841Z,45.70
2018-05-04T04:46:29.058Z,44.60
2018-05-04T04:48:55.722Z,44.40
2018-05-04T04:51:21.931Z,45.00
2018-05-04T04:53:48.158Z,44.50
2018-05-04T04:56:14.715Z,43.90
2018-05-04T04:58:40.955Z,44.10
2018-05-04T05:01:08.174Z,44.10
2018-05-04T05:03:34.420Z,44.80
2018-05-04T05:06:00.648Z,44.20
2018-05-04T05:08:26.927Z,43.60
2018-05-04T05:10:53.171Z,43.70
2018-05-04T05:13:19.412Z,44.10
2018-05-04T05:15:45.660Z,43.60
2018-05-04T05:18:11.893Z,43.40
2018-05-04T05:20:38.168Z,43.20
2018-05-04T05:23:04.594Z,43.10
2018-05-04T05:25:31.425Z,43.70
2018-05-04T05:27:57.637Z,43.70
2018-05-04T05:30:23.892Z,43.50
2018-05-04T05:32:50.171Z,43.10
2018-05-04T05:35:16.393Z,42.60
2018-05-04T05:37:42.629Z,42.80
2018-05-04T05:40:08.849Z,42.80
2018-05-04T05:42:35.871Z,42.50
2018-05-04T05:45:02.129Z,42.50
2018-05-04T05:47:28.359Z,42.60
2018-05-04T05:49:54.600Z,43.00
2018-05-04T05:52:21.611Z,43.20
2018-05-04T05:54:47.856Z,43.20
2018-05-04T05:57:14.126Z,43.60
2018-05-04T05:59:40.373Z,43.70
2018-05-04T06:02:07.344Z,43.80
2018-05-04T06:04:33.593Z,43.90
2018-05-04T06:06:59.802Z,44.10
2018-05-04T06:09:26.182Z,44.20
2018-05-04T06:11:52.393Z,44.20
2018-05-04T06:14:18.638Z,44.30
2018-05-04T06:16:44.848Z,44.30
2018-05-04T06:19:11.090Z,44.40
2018-05-04T06:21:37.341Z,44.40
2018-05-04T06:24:03.549Z,44.60
2018-05-04T06:26:29.788Z,44.50
2018-05-04T06:28:56.052Z,44.70
2018-05-04T06:31:22.274Z,44.60
2018-05-04T06:33:48.625Z,44.80
2018-05-04T06:36:14.805Z,44.80
2018-05-04T06:38:41.794Z,44.90
2018-05-04T06:41:08.037Z,45.50
2018-05-04T06:43:34.264Z,45.00
2018-05-04T06:46:00.521Z,45.00
2018-05-04T06:48:26.753Z,45.00
2018-05-04T06:50:53.078Z,45.10
2018-05-04T06:53:19.325Z,45.10
2018-05-04T06:55:45.589Z,45.10
2018-05-04T06:58:11.822Z,45.10
2018-05-04T07:00:38.042Z,45.20
2018-05-04T07:03:04.268Z,45.20
2018-05-04T07:05:30.529Z,45.20
2018-05-04T07:07:57.509Z,45.30
2018-05-04T07:10:23.735Z,45.30
2018-05-04T07:12:50.005Z,45.30
2018-05-04T07:15:16.240Z,45.30
2018-05-04T07:17:42.457Z,45.30
2018-05-04T07:20:08.844Z,45.40
2018-05-04T07:22:35.062Z,45.40
2018-05-04T07:25:01.332Z,45.50
2018-05-04T07:27:27.836Z,45.50
2018-05-04T07:29:54.117Z,45.40
2018-05-04T07:32:20.333Z,45.50
2018-05-04T07:34:46.553Z,45.50
2018-05-04T07:37:12.829Z,45.60
2018-05-04T07:39:39.075Z,45.60
2018-05-04T07:42:05.732Z,45.50
2018-05-04T07:44:31.977Z,45.60
2018-05-04T07:46:58.229Z,45.70
2018-05-04T07:49:24.458Z,45.70
2018-05-04T07:51:50.713Z,45.80
2018-05-04T07:54:16.938Z,45.70
2018-05-04T07:56:43.188Z,45.70
2018-05-04T07:59:09.856Z,45.80
2018-05-04T08:01:36.081Z,45.80
2018-05-04T08:04:02.334Z,45.80
2018-05-04T08:06:28.764Z,45.80
2018-05-04T08:08:55.768Z,45.90
2018-05-04T08:11:22.050Z,45.80
2018-05-04T08:13:48.291Z,45.90
2018-05-04T08:16:14.528Z,45.90
2018-05-04T08:18:40.774Z,45.90
2018-05-04T08:21:07.203Z,45.90
2018-05-04T08:23:33.501Z,45.90
2018-05-04T08:25:59.733Z,45.90
2018-05-04T08:28:25.950Z,45.90
2018-05-04T08:30:52.173Z,45.90
2018-05-04T08:33:18.478Z,45.90
2018-05-04T08:35:44.737Z,45.90
2018-05-04T08:38:11.003Z,45.90
2018-05-04T08:40:37.305Z,46.00
2018-05-04T08:43:03.631Z,46.00
2018-05-04T08:45:29.784Z,46.00
2018-05-04T08:47:56.037Z,46.00
2018-05-04T08:50:22.284Z,46.00
2018-05-04T08:52:49.117Z,46.00
2018-05-04T08:55:16.073Z,46.00
2018-05-04T08:57:42.285Z,46.10
2018-05-04T09:00:08.556Z,46.00
2018-05-04T09:02:35.510Z,46.00
2018-05-04T09:05:01.756Z,46.10
2018-05-04T09:07:28.733Z,46.10
2018-05-04T09:09:54.971Z,46.10
2018-05-04T09:12:21.250Z,46.00
2018-05-04T09:14:47.640Z,46.00
2018-05-04T09:17:13.880Z,46.00
2018-05-04T09:19:40.131Z,46.00
2018-05-04T09:22:06.378Z,46.00
2018-05-04T09:24:32.637Z,46.00
2018-05-04T09:26:58.864Z,46.00
2018-05-04T09:29:25.078Z,46.00
2018-05-04T09:31:51.305Z,46.00
2018-05-04T09:34:17.550Z,46.00
2018-05-04T09:36:44.210Z,46.60
2018-05-04T09:39:10.454Z,46.00
2018-05-04T09:41:36.682Z,46.00
2018-05-04T09:44:02.942Z,46.00
2018-05-04T09:46:29.935Z,46.00
2018-05-04T09:48:56.210Z,45.90
2018-05-04T09:51:23.216Z,45.90
2018-05-04T09:53:50.204Z,45.90
2018-05-04T09:56:16.440Z,45.90
2018-05-04T09:58:43.435Z,46.00
2018-05-04T10:01:10.478Z,45.90
2018-05-04T10:03:37.547Z,45.90
2018-05-04T10:06:03.832Z,45.90
2018-05-04T10:08:30.064Z,45.80
2018-05-04T10:10:56.285Z,45.90
2018-05-04T10:13:22.564Z,45.90
2018-05-04T10:15:49.071Z,45.80
2018-05-04T10:18:15.290Z,45.80
2018-05-04T10:20:41.525Z,45.70
2018-05-04T10:23:07.733Z,45.80
2018-05-04T10:25:34.006Z,45.70
2018-05-04T10:28:00.256Z,45.70
2018-05-04T10:30:27.121Z,45.70
2018-05-04T10:32:53.363Z,45.70
2018-05-04T10:35:19.604Z,45.70
2018-05-04T10:37:45.865Z,45.70
2018-05-04T10:40:12.083Z,45.60
2018-05-04T10:42:38.311Z,45.60
2018-05-04T10:45:04.610Z,45.60
2018-05-04T10:47:30.830Z,45.60
2018-05-04T10:49:57.438Z,45.70
2018-05-04T10:52:23.676Z,45.70
2018-05-04T10:54:49.910Z,45.60
2018-05-04T10:57:16.294Z,45.70
2018-05-04T10:59:42.496Z,45.70
2018-05-04T11:02:08.772Z,45.70
2018-05-04T11:04:36.488Z,45.70
2018-05-04T11:07:02.748Z,45.80
2018-05-04T11:09:28.990Z,45.70
2018-05-04T11:11:55.891Z,45.70
2018-05-04T11:14:22.146Z,45.70
2018-05-04T11:16:48.391Z,45.70
2018-05-04T11:19:14.618Z,45.60
2018-05-04T11:21:40.850Z,45.70
2018-05-04T11:24:07.701Z,45.70
2018-05-04T11:26:33.968Z,45.60
2018-05-04T11:29:00.197Z,45.60
2018-05-04T11:31:26.444Z,45.50
2018-05-04T11:33:52.685Z,45.70
2018-05-04T11:36:18.940Z,45.60
2018-05-04T11:38:45.185Z,45.60
2018-05-04T11:41:11.432Z,45.50
2018-05-04T11:43:37.667Z,45.50
2018-05-04T11:46:03.909Z,45.60
2018-05-04T11:48:30.151Z,45.50
2018-05-04T11:50:56.432Z,45.50
2018-05-04T11:53:22.648Z,45.50
2018-05-04T11:55:48.873Z,45.50
2018-05-04T11:58:15.114Z,45.40
2018-05-04T12:00:41.352Z,45.50
2018-05-04T12:03:07.631Z,45.50
2018-05-04T12:05:33.862Z,45.50
2018-05-04T12:08:00.702Z,45.40
2018-05-04T12:10:27.712Z,46.20
2018-05-04T12:12:53.978Z,45.50
2018-05-04T12:15:21.057Z,45.40
2018-05-04T12:17:47.689Z,45.40
2018-05-04T12:20:14.681Z,45.50
2018-05-04T12:22:41.183Z,45.40
2018-05-04T12:25:07.407Z,45.40
2018-05-04T12:27:33.675Z,45.40
2018-05-04T12:29:59.913Z,45.30
2018-05-04T12:32:26.148Z,45.40
2018-05-04T12:34:52.385Z,45.40
2018-05-04T12:37:18.602Z,45.30
2018-05-04T12:39:45.652Z,45.30
2018-05-04T12:42:12.632Z,45.20
2018-05-04T12:44:38.867Z,45.10
2018-05-04T12:47:05.144Z,45.30
2018-05-04T12:49:31.391Z,45.20
2018-05-04T12:51:57.674Z,45.20
2018-05-04T12:54:23.939Z,45.20
2018-05-04T12:56:50.174Z,45.20
2018-05-04T12:59:16.441Z,45.10
2018-05-04T13:01:42.658Z,45.20
2018-05-04T13:04:08.935Z,45.10
2018-05-04T13:06:35.204Z,45.10
2018-05-04T13:09:01.508Z,45.10
2018-05-04T13:11:27.729Z,45.10
2018-05-04T13:13:53.990Z,45.00
2018-05-04T13:16:20.272Z,45.00
2018-05-04T13:18:46.520Z,44.20
2018-05-04T13:21:13.536Z,45.00
2018-05-04T13:23:39.770Z,44.40
2018-05-04T13:26:06.020Z,44.30
2018-05-04T13:28:32.300Z,43.20
2018-05-04T13:30:58.537Z,43.30
2018-05-04T13:33:24.835Z,43.80
2018-05-04T13:35:51.036Z,43.10
2018-05-04T13:38:17.292Z,43.40
2018-05-04T13:40:43.593Z,43.00
2018-05-04T13:43:09.824Z,42.80
2018-05-04T13:45:36.053Z,42.70
2018-05-04T13:48:02.282Z,42.90
2018-05-04T13:50:28.825Z,42.50
2018-05-04T13:52:55.080Z,42.20
2018-05-04T13:55:21.294Z,43.10
2018-05-04T13:57:47.560Z,43.40
2018-05-04T14:00:13.787Z,43.20
2018-05-04T14:02:40.013Z,43.10
2018-05-04T14:05:06.278Z,42.70
2018-05-04T14:07:33.135Z,43.00
2018-05-04T14:09:59.354Z,42.30
2018-05-04T14:12:25.584Z,41.20
2018-05-04T14:14:51.810Z,41.00
2018-05-04T14:17:18.076Z,40.90
2018-05-04T14:19:44.316Z,41.90
2018-05-04T14:22:10.555Z,41.80
2018-05-04T14:24:36.806Z,42.30
2018-05-04T14:27:03.030Z,41.90
2018-05-04T14:29:29.320Z,42.10
2018-05-04T14:31:55.595Z,41.90
2018-05-04T14:34:21.814Z,41.60
2018-05-04T14:36:48.864Z,41.40
2018-05-04T14:39:15.154Z,41.60
2018-05-04T14:41:41.436Z,41.90
2018-05-04T14:44:07.672Z,41.70
2018-05-04T14:46:33.889Z,41.60
2018-05-04T14:49:00.149Z,41.60
2018-05-04T14:51:26.389Z,41.70
2018-05-04T14:53:52.680Z,41.80
2018-05-04T14:56:19.533Z,41.70
2018-05-04T14:58:46.403Z,42.70
2018-05-04T15:01:12.617Z,42.00
2018-05-04T15:03:38.853Z,41.90
2018-05-04T15:06:05.133Z,41.70
2018-05-04T15:08:31.732Z,41.90
2018-05-04T15:10:57.945Z,41.50
2018-05-04T15:13:24.192Z,41.30
2018-05-04T15:15:50.417Z,41.80
2018-05-04T15:18:16.692Z,41.70
2018-05-04T15:20:43.532Z,41.60
2018-05-04T15:23:09.749Z,41.40
2018-05-04T15:25:35.989Z,41.90
2018-05-04T15:28:02.211Z,42.20
2018-05-04T15:30:28.500Z,42.30
2018-05-04T15:32:54.737Z,42.50
2018-05-04T15:35:21.362Z,42.40
2018-05-04T15:37:47.604Z,42.40
2018-05-04T15:40:13.837Z,43.00
2018-05-04T15:42:40.864Z,42.80
2018-05-04T15:45:07.115Z,42.70
2018-05-04T15:47:33.339Z,42.60
2018-05-04T15:50:00.239Z,42.80
2018-05-04T15:52:27.232Z,42.90
2018-05-04T15:54:53.490Z,42.90
2018-05-04T15:57:19.739Z,43.00
2018-05-04T15:59:46.037Z,43.00
2018-05-04T16:02:12.284Z,43.20
2018-05-04T16:04:38.502Z,43.30
2018-05-04T16:07:04.754Z,43.30
2018-05-04T16:09:30.978Z,43.40
2018-05-04T16:11:57.233Z,43.40
2018-05-04T16:14:23.461Z,43.40
2018-05-04T16:16:49.686Z,43.50
2018-05-04T16:19:15.936Z,43.40
2018-05-04T16:21:42.176Z,43.50
2018-05-04T16:24:08.464Z,43.60
2018-05-04T16:26:35.112Z,43.60
2018-05-04T16:29:01.754Z,43.60
2018-05-04T16:31:27.985Z,43.70
2018-05-04T16:33:54.208Z,43.70
2018-05-04T16:36:20.457Z,43.60
2018-05-04T16:38:47.044Z,43.40
2018-05-04T16:41:14.012Z,43.60
2018-05-04T16:43:40.316Z,43.60
2018-05-04T16:46:06.627Z,43.70
2018-05-04T16:48:32.868Z,43.70
2018-05-04T16:50:59.834Z,43.70
2018-05-04T16:53:26.108Z,43.80
2018-05-04T16:55:53.130Z,43.90
2018-05-04T16:58:19.349Z,43.80
2018-05-04T17:00:45.596Z,43.80
2018-05-04T17:03:11.841Z,43.80
2018-05-04T17:05:38.097Z,43.90
2018-05-04T17:08:04.331Z,44.00
2018-05-04T17:10:30.573Z,44.00
2018-05-04T17:12:57.558Z,44.10
2018-05-04T17:15:23.803Z,44.10
2018-05-04T17:17:50.078Z,44.00
2018-05-04T17:20:16.309Z,44.00
2018-05-04T17:22:43.319Z,44.20
2018-05-04T17:25:09.540Z,44.10
2018-05-04T17:27:35.793Z,44.10
2018-05-04T17:30:02.080Z,44.20
2018-05-04T17:32:28.301Z,44.10
2018-05-04T17:34:54.830Z,44.00
2018-05-04T17:37:21.083Z,44.20
2018-05-04T17:39:48.315Z,44.30
2018-05-04T17:42:14.592Z,44.30
2018-05-04T17:44:40.856Z,44.30
2018-05-04T17:47:07.984Z,44.90
2018-05-04T17:49:34.192Z,44.40
2018-05-04T17:52:00.436Z,44.40
2018-05-04T17:54:26.654Z,44.40
2018-05-04T17:56:52.913Z,44.40
2018-05-04T17:59:19.153Z,44.40
2018-05-04T18:01:45.433Z,44.30
2018-05-04T18:04:11.743Z,44.50
2018-05-04T18:06:38.000Z,44.60
2018-05-04T18:09:04.213Z,44.50
2018-05-04T18:11:30.598Z,44.50
2018-05-04T18:13:56.883Z,44.60
2018-05-04T18:16:23.149Z,44.60
2018-05-04T18:18:49.410Z,44.60
2018-05-04T18:21:15.654Z,44.60
2018-05-04T18:23:41.931Z,44.60
2018-05-04T18:26:08.198Z,44.70
2018-05-04T18:28:34.451Z,44.70
2018-05-04T18:31:00.676Z,44.70
2018-05-04T18:33:26.905Z,44.70
2018-05-04T18:35:53.130Z,44.70
2018-05-04T18:38:19.708Z,44.70
2018-05-04T18:40:46.296Z,44.70
2018-05-04T18:43:12.514Z,45.30
2018-05-04T18:45:39.497Z,44.70
2018-05-04T18:48:06.279Z,44.70
2018-05-04T18:50:32.549Z,44.80
2018-05-04T18:52:59.003Z,44.70
2018-05-04T18:55:25.217Z,44.00
2018-05-04T18:57:51.461Z,43.30
2018-05-04T19:00:17.672Z,43.60
2018-05-04T19:02:44.708Z,42.50
2018-05-04T19:05:10.933Z,42.50
2018-05-04T19:07:37.172Z,42.30
2018-05-04T19:10:03.429Z,42.20
2018-05-04T19:12:30.436Z,42.80
2018-05-04T19:14:56.700Z,42.70
2018-05-04T19:17:22.914Z,42.10
2018-05-04T19:19:49.155Z,41.90
2018-05-04T19:22:15.370Z,42.00
2018-05-04T19:24:41.597Z,43.00
2018-05-04T19:27:07.853Z,43.10
2018-05-04T19:29:34.243Z,42.90
2018-05-04T19:32:01.235Z,43.30
2018-05-04T19:34:27.512Z,43.30
2018-05-04T19:36:53.746Z,42.50
2018-05-04T19:39:20.029Z,42.60
2018-05-04T19:41:46.261Z,42.80
2018-05-04T19:44:12.561Z,42.30
2018-05-04T19:46:38.776Z,42.10
2018-05-04T19:49:06.513Z,43.10
2018-05-04T19:51:32.798Z,42.90
2018-05-04T19:53:59.804Z,41.90
2018-05-04T19:56:26.044Z,41.80
2018-05-04T19:58:53.105Z,42.00
2018-05-04T20:01:19.348Z,42.00
2018-05-04T20:03:46.708Z,42.10
2018-05-04T20:06:12.953Z,42.10
2018-05-04T20:08:39.173Z,42.80
2018-05-04T20:11:05.387Z,42.40
2018-05-04T20:13:31.623Z,42.10
2018-05-04T20:15:57.910Z,42.50
2018-05-04T20:18:24.928Z,43.20
2018-05-04T20:20:51.178Z,43.20
2018-05-04T20:23:17.464Z,43.30
2018-05-04T20:25:44.531Z,43.30
2018-05-04T20:28:10.847Z,43.30
2018-05-04T20:30:37.082Z,43.30
2018-05-04T20:33:03.333Z,43.40
2018-05-04T20:35:29.561Z,43.30
2018-05-04T20:37:55.804Z,43.60
2018-05-04T20:40:22.079Z,43.50
2018-05-04T20:42:48.332Z,43.70
2018-05-04T20:45:14.571Z,43.60
2018-05-04T20:47:41.560Z,43.80
2018-05-04T20:50:07.805Z,43.80
2018-05-04T20:52:34.225Z,43.70
2018-05-04T20:55:00.664Z,43.80
2018-05-04T20:57:26.883Z,44.20
2018-05-04T20:59:53.121Z,44.10
2018-05-04T21:02:19.381Z,43.90
2018-05-04T21:04:45.792Z,44.00
2018-05-04T21:07:12.783Z,43.90
2018-05-04T21:09:39.024Z,43.90
2018-05-04T21:12:05.249Z,44.00
2018-05-04T21:14:31.461Z,44.10
2018-05-04T21:16:57.740Z,44.30
2018-05-04T21:19:24.767Z,44.30
2018-05-04T21:21:51.471Z,43.90
2018-05-04T21:24:18.472Z,43.70
2018-05-04T21:26:45.448Z,43.60
2018-05-04T21:29:11.706Z,43.50
2018-05-04T21:31:38.708Z,44.00
2018-05-04T21:34:04.917Z,43.90
2018-05-04T21:39:03.773Z,44.00
2018-05-04T21:41:30.011Z,44.00
2018-05-04T21:43:56.233Z,44.00
2018-05-04T21:46:22.478Z,44.70
2018-05-04T21:48:48.716Z,44.20
2018-05-04T21:51:14.925Z,44.10
2018-05-04T21:53:41.173Z,44.30
2018-05-04T21:56:07.394Z,44.20
2018-05-04T21:58:34.058Z,44.40
2018-05-04T22:01:00.289Z,44.40
2018-05-04T22:03:26.535Z,44.30
2018-05-04T22:05:52.780Z,44.50
2018-05-04T22:08:19.029Z,44.60
2018-05-04T22:10:46.072Z,45.00
2018-05-04T22:13:12.303Z,44.90
2018-05-04T22:15:39.223Z,45.00
2018-05-04T22:18:05.437Z,45.20
2018-05-04T22:20:31.674Z,45.20
2018-05-04T22:22:57.960Z,45.30
2018-05-04T22:25:24.177Z,45.30
2018-05-04T22:27:50.402Z,45.50
2018-05-04T22:30:16.624Z,45.50
2018-05-04T22:32:42.862Z,45.60
2018-05-04T22:35:09.108Z,45.60
2018-05-04T22:37:35.320Z,45.90
2018-05-04T22:40:01.545Z,46.00
2018-05-04T22:42:27.793Z,46.00
2018-05-04T22:44:54.034Z,45.90
2018-05-04T22:47:20.309Z,45.90
2018-05-04T22:49:46.555Z,46.30
2018-05-04T22:52:12.808Z,46.20
2018-05-04T22:54:39.077Z,46.20
2018-05-04T22:57:05.338Z,46.30
2018-05-04T22:59:31.613Z,46.20
2018-05-04T23:01:57.875Z,46.30
2018-05-04T23:04:24.103Z,46.40
2018-05-04T23:06:50.740Z,46.40
2018-05-04T23:09:16.961Z,46.50
2018-05-04T23:11:43.240Z,46.30
2018-05-04T23:14:09.453Z,46.30
2018-05-04T23:16:36.418Z,46.50
2018-05-04T23:19:02.664Z,46.40
2018-05-04T23:21:28.888Z,46.40
2018-05-04T23:23:55.179Z,46.30
2018-05-04T23:26:21.403Z,46.30
2018-05-04T23:28:48.412Z,46.70
2018-05-04T23:31:14.621Z,46.60
2018-05-04T23:33:40.864Z,46.90
2018-05-04T23:36:07.150Z,47.00
2018-05-04T23:38:34.218Z,47.00
2018-05-04T23:41:01.236Z,47.00
2018-05-04T23:43:27.452Z,47.00
2018-05-04T23:45:53.700Z,46.90
2018-05-04T23:48:19.971Z,47.10
2018-05-04T23:50:46.957Z,47.30
2018-05-04T23:53:13.181Z,47.30
2018-05-04T23:55:39.420Z,47.30
2018-05-04T23:58:05.643Z,47.70
